Terminal Aerodrome Forecast
Issued by NWS

Home | Current Version | Previous Version | Text Only | Print | Product List | Glossary On
Versions: 1 2 3 4 5 6 7 8 9 10 11 12 13 14 15 16 17
091
FTUS42 KMLB 221135
TAFLEE
TAF
KLEE 221135Z 2212/2312 11006KT P6SM VCSH SCT060 OVC080
     FM221400 13008KT P6SM VCSH SCT025 BKN040 OVC060
      TEMPO 2214/2218 5SM SHRA OVC010
     FM221800 15009KT 5SM -RA BR OVC015
      TEMPO 2218/2222 2SM SHRA OVC008
     FM222200 11005KT P6SM VCSH SCT020 OVC050
      TEMPO 2222/2302 5SM SHRA BKN020 OVC040
     FM230200 08006KT P6SM VCSH BKN015 OVC030
     FM230600 03006KT P6SM BKN010 OVC020=

USA.gov is the U.S. government's official web portal to all federal, state and local government web resources and services.